• Join FlightAware (Why Join?)
  • Login
  • US Flag 
02:29AM EDT


 

Airport Tracker/Info


-or-


 

Live Flight TrackerFlight Track Log ✈ FLG3862 ✈ 12-May-2013 ✈ KBTV - KDTW

Flight Track Log - Related Links

Times and Time Zones

All times are in EDT time to prevent confusion due to time zone crossing. See the FLG3862 flight status page for this flight to view local times or setup timezone preferences in your user account.

Time Position Orientation Groundspeed Altitude Reporting Facility
EDT Latitude Longitude Course Direction KTS MPH feet Rate Location/Type
12:34PM 44.3814 -73.6316 253° West  Level FlightAware Approximate
12:34PM 44.4675 -73.4175 255° West 265 305 9,400  Level Boston Center
12:35PM 44.3593 -73.7518 259° West  Level FlightAware Approximate
12:35PM 44.4481 -73.5217 255° West 272 313 10,500  Level Boston Center
12:36PM 44.3419 -73.8736 259° West  Level FlightAware Approximate
12:36PM 44.4261 -73.6347 255° West 294 338 12,200  Level Boston Center
12:37PM 44.3221 -73.9946 256° West  Level FlightAware Approximate
12:37PM 44.4058 -73.7564 257° West 312 359 14,200  Level Boston Center
12:38PM 44.3000 -74.1148 256° West  Level FlightAware Approximate
12:38PM 44.3817 -73.8750 254° West 317 365 16,100  Level Boston Center
12:39PM 44.3592 -73.9964 256° West 317 365 17,700 1,680 Climbing Boston Center
12:40PM 44.3364 -74.1236 256° West 323 372 19,500 1,560 Climbing Boston Center
12:41PM 44.3117 -74.2475 254° West 328 377 20,900 1,440 Climbing Boston Center
12:42PM 44.2889 -74.3744 256° West 333 383 22,400 1,380 Climbing Boston Center
12:43PM 44.2636 -74.5011 254° West 339 390 23,700 1,200 Climbing Boston Center
12:44PM 44.2406 -74.6250 255° West 339 390 24,900 1,080 Climbing Boston Center
12:45PM 44.2153 -74.7486 254° West 339 390 25,900 900 Climbing Boston Center
12:46PM 44.1917 -74.8753 255° West 339 390 26,800 780 Climbing Boston Center
12:47PM 44.1661 -75.0017 254° West 339 390 27,500 660 Climbing Boston Center
12:48PM 44.1422 -75.1308 256° West 339 390 28,200 600 Climbing Boston Center
12:49PM 44.1164 -75.2597 254° West 339 390 28,800 600 Climbing Boston Center
12:50PM 44.0922 -75.3886 255° West 344 396 29,500 600 Climbing Boston Center
12:51PM 44.0639 -75.5172 253° West 344 396 30,000 240 Climbing Boston Center
12:52PM 44.0394 -75.6489 256° West 349 402 30,000  Level Boston Center
12:53PM 44.0106 -75.7831 253° West 354 407 30,000  Level Boston Center
12:54PM 43.9858 -75.9144 255° West 359 413 30,000  Level Boston Center
12:55PM 43.9586 -76.0514 255° West 359 413 30,000  Level Boston Center
12:56PM 43.9500 -76.1950 265° West 359 413 30,000  Level Boston Center
12:57PM 43.9492 -76.3422 270° West 372 428 30,000  Level Boston Center
12:58PM 43.9442 -76.4892 267° West 382 440 30,000  Level Boston Center
12:59PM 43.9431 -76.6361 269° West 382 440 30,000  Level Boston Center
12:59PM 43.9333 -76.6667 246° West 390 449 30,000  Level Toronto Center
01:00PM 43.9167 -76.8167 261° West 380 437 30,000  Level Toronto Center
01:01PM 43.9167 -76.9667 270° West 390 449 30,000  Level Toronto Center
01:02PM 43.9000 -77.1167 261° West 390 449 30,000  Level Toronto Center
01:03PM 43.9000 -77.2667 270° West 390 449 30,000  Level Toronto Center
01:04PM 43.9167 -77.4167 279° West 390 449 30,000  Level Toronto Center
01:05PM 43.9000 -77.5667 261° West 390 449 30,000  Level Toronto Center
01:06PM 43.9000 -77.7167 270° West 380 437 30,000  Level Toronto Center
01:07PM 43.8833 -77.8667 261° West 390 449 30,000  Level Toronto Center
01:08PM 43.8833 -78.0167 270° West 390 449 30,000  Level Toronto Center
01:09PM 43.8667 -78.1500 260° West 390 449 30,000  Level Toronto Center
01:10PM 43.8667 -78.3167 270° West 390 449 30,000  Level Toronto Center
01:11PM 43.8500 -78.4500 260° West 390 449 30,000  Level Toronto Center
01:12PM 43.8667 -78.6167 278° West 390 449 30,000  Level Toronto Center
01:13PM 43.8500 -78.7500 260° West 390 449 30,000  Level Toronto Center
01:14PM 43.8500 -78.9167 270° West 390 449 30,000  Level Toronto Center
01:15PM 43.8333 -79.0500 260° West 390 449 30,000  Level Toronto Center
01:16PM 43.8333 -79.2167 270° West 390 449 30,000  Level Toronto Center
01:17PM 43.7667 -79.3333 232° Southwest 380 437 30,000  Level Toronto Center
01:18PM 43.7000 -79.4500 232° Southwest 390 449 30,000  Level Toronto Center
01:19PM 43.6167 -79.5333 216° Southwest 390 449 30,000  Level Toronto Center
01:20PM 43.5500 -79.6500 232° Southwest 380 437 30,000  Level Toronto Center
01:21PM 43.4667 -79.7667 225° Southwest 390 449 30,000  Level Toronto Center
01:22PM 43.4000 -79.8667 227° Southwest 390 449 30,000  Level Toronto Center
01:23PM 43.3167 -79.9833 226° Southwest 390 449 30,000  Level Toronto Center
01:24PM 43.2500 -80.0833 228° Southwest 390 449 30,000 -360 Level Toronto Center
01:25PM 43.1667 -80.2000 226° Southwest 390 449 29,300 -1,080 Descending Toronto Center
01:26PM 43.1000 -80.3000 228° Southwest 400 460 27,900 -1,380 Descending Toronto Center
01:27PM 43.0333 -80.4167 232° Southwest 400 460 26,600 -1,380 Descending Toronto Center
01:28PM 42.9500 -80.5167 221° Southwest 410 472 25,200 -1,500 Descending Toronto Center
01:29PM 42.8667 -80.6333 226° Southwest 410 472 23,700 -1,440 Descending Toronto Center
01:29PM 42.8583 -80.6767 255° West 408 470 23,400 -540 Descending Cleveland Center
01:30PM 42.7769 -80.7925 226° Southwest 417 480 23,000 -240 Descending Cleveland Center
01:31PM 42.6994 -80.9167 230° Southwest 417 480 23,000  Level Cleveland Center
01:32PM 42.6842 -81.0689 262° West 397 457 23,000  Level Cleveland Center
01:33PM 42.6669 -81.2186 261° West 397 457 23,000  Level Cleveland Center
01:34PM 42.6514 -81.3708 262° West 403 464 23,000 -420 Level Cleveland Center
01:35PM 42.6336 -81.5172 261° West 403 464 22,200 -1,140 Descending Cleveland Center
01:36PM 42.6178 -81.6581 261° West 403 464 20,800 -1,500 Descending Cleveland Center
01:37PM 42.5997 -81.7961 260° West 385 443 19,300 -1,560 Descending Cleveland Center
01:38PM 42.5836 -81.9283 261° West 380 437 17,700 -1,560 Descending Cleveland Center
01:39PM 42.5675 -82.0603 261° West 363 418 16,200 -1,500 Descending Cleveland Center
01:40PM 42.5511 -82.1869 260° West 357 411 14,800 -1,500 Descending Cleveland Center
01:41PM 42.5461 -82.2431 263° West 335 386 14,100 -1,500 Descending Cleveland Center
01:41PM 42.5347 -82.3075 257° West 350 403 13,300 -1,620 Descending Cleveland Center
01:42PM 42.5319 -82.3667 266° West 326 375 12,500 -1,320 Descending Cleveland Center
01:42PM 42.5206 -82.4283 256° West 339 390 12,000 -540 Descending Cleveland Center
01:43PM 42.5175 -82.4847 266° West 325 374 12,000  Level Cleveland Center
01:43PM 42.5039 -82.5517 255° West 334 384 12,000 -300 Level Cleveland Center
01:44PM 42.4817 -82.6186 246° West 338 389 11,700 -600 Descending Cleveland Center
01:44PM 42.4664 -82.6606 244° Southwest 334 384 11,400 -1,020 Descending Cleveland Center
01:45PM 42.4486 -82.7189 248° West 270 311 10,700 -1,140 Descending Cleveland Center
01:45PM 42.4336 -82.7522 239° Southwest 305 351 10,300 -1,380 Descending Cleveland Center
01:46PM 42.4158 -82.8050 245° Southwest 240 276 9,300 -1,500 Descending Cleveland Center
01:46PM 42.4069 -82.8356 249° West 273 314 8,800 -1,500 Descending Cleveland Center
01:47PM 42.4017 -82.8917 263° West 237 273 7,800 -1,500 Descending Cleveland Center
01:47PM 42.3925 -82.9250 250° West 251 289 7,300 -840 Descending Cleveland Center
01:48PM 42.3911 -82.9897 268° West 242 278 7,000 -300 Descending Cleveland Center
01:48PM 42.3886 -83.0122 261° West 245 282 7,000 -120 Level Cleveland Center
01:49PM 42.3894 -83.0739 271° West 225 259 6,900 -300 Descending Cleveland Center
01:49PM 42.3869 -83.0964 261° West 233 268 6,700 -1,020 Descending Cleveland Center
01:50PM 42.3900 -83.1472 275° West 179 206 5,900 -1,140 Descending Cleveland Center
01:50PM 42.3875 -83.1611 256° West 209 241 5,600 -1,380 Descending Cleveland Center
01:51PM 42.3675 -83.2108 241° Southwest 192 221 4,500 -1,380 Descending Cleveland Center
01:52PM 42.3292 -83.2542 220° Southwest 178 205 3,300 -1,200 Descending Cleveland Center